Time;durP1;ratioP1;P1;durP2;ratioP2;P2;SDS_P1;SDS_P2;PMS_P1;PMS_P2;Temp;Humidity;BMP_temperature;BMP_pressure;BME280_temperature;BME280_humidity;BME280_pressure;Samples;Min_cycle;Max_cycle;Signal;HPM_P1;HPM_P2
2022/10/28 00:00:44;;;;;;;;;;;15.40;92.20;;;;;;5071737;28;19960;-82
2022/10/28 00:03:10;;;;;;;;;;;15.40;92.30;;;;;;5054637;28;19971;-82
2022/10/28 00:05:35;;;;;;;;;;;15.40;92.30;;;;;;5052175;28;20055;-82
2022/10/28 00:08:00;;;;;;;;;;;15.30;92.20;;;;;;5053311;28;20266;-82
2022/10/28 00:10:26;;;;;;;;;;;15.40;92.00;;;;;;5060577;28;19904;-82
2022/10/28 00:12:51;;;;;;;;;;;15.30;92.20;;;;;;5068686;28;19916;-82
2022/10/28 00:15:17;;;;;;;;;;;15.30;92.20;;;;;;5052260;28;19908;-82
2022/10/28 00:17:42;;;;;;;;;;;15.30;92.50;;;;;;5051571;28;19913;-83
2022/10/28 00:20:08;;;;;;;;;;;15.20;92.50;;;;;;5051578;28;19913;-82
2022/10/28 00:22:33;;;;;;;;;;;15.10;92.70;;;;;;5054678;28;20359;-82
2022/10/28 00:24:59;;;;;;;;;;;15.10;92.70;;;;;;5057481;28;19909;-82
2022/10/28 00:27:24;;;;;;;;;;;15.00;92.80;;;;;;5062766;28;19978;-82
2022/10/28 00:29:49;;;;;;;;;;;15.00;93.10;;;;;;5069548;28;19905;-82
2022/10/28 00:32:15;;;;;;;;;;;15.00;93.30;;;;;;5051106;28;19920;-82
2022/10/28 00:34:40;;;;;;;;;;;15.00;93.20;;;;;;5051087;28;19952;-82
2022/10/28 00:37:07;;;;;;;;;;;14.90;93.30;;;;;;5067613;28;20399;-82
2022/10/28 00:39:32;;;;;;;;;;;14.90;93.20;;;;;;5063433;28;19905;-83
2022/10/28 00:42:02;;;;;;;;;;;14.80;93.50;;;;;;5062531;28;19912;-82
2022/10/28 00:44:46;;;;;;;;;;;14.80;93.70;;;;;;5073102;28;20286;-82
2022/10/28 00:47:27;;;;;;;;;;;14.80;93.80;;;;;;5056214;28;19983;-82
2022/10/28 00:49:54;;;;;;;;;;;14.80;93.70;;;;;;5054788;28;19905;-82
2022/10/28 00:52:22;;;;;;;;;;;14.80;93.80;;;;;;5075475;28;19909;-82
2022/10/28 00:54:48;;;;;;;;;;;14.80;93.80;;;;;;5062557;28;20384;-82
2022/10/28 00:57:15;;;;;;;;;;;14.70;93.80;;;;;;5062285;28;19904;-82
2022/10/28 00:59:44;;;;;;;;;;;14.70;93.60;;;;;;5063543;28;20408;-83
2022/10/28 01:02:10;;;;;;;;;;;14.70;94.00;;;;;;5062815;28;19966;-82
2022/10/28 01:04:35;;;;;;;;;;;14.60;93.70;;;;;;5072444;28;19905;-82
2022/10/28 01:07:01;;;;;;;;;;;14.60;94.00;;;;;;5056055;28;19909;-82
2022/10/28 01:09:26;;;;;;;;;;;14.60;94.00;;;;;;5055757;28;19905;-82
2022/10/28 01:11:55;;;;;;;;;;;14.50;93.90;;;;;;5055314;28;19909;-82
2022/10/28 01:14:29;;;;;;;;;;;14.60;94.30;;;;;;5057085;28;19916;-82
2022/10/28 01:17:00;;;;;;;;;;;14.60;94.10;;;;;;5055865;28;19951;-82
2022/10/28 01:19:44;;;;;;;;;;;14.60;93.80;;;;;;5057615;28;20414;-82
2022/10/28 01:22:15;;;;;;;;;;;14.60;93.80;;;;;;5062580;28;19943;-82
2022/10/28 01:24:59;;;;;;;;;;;14.60;94.00;;;;;;5070776;28;19904;-82
2022/10/28 01:27:45;;;;;;;;;;;14.60;93.90;;;;;;5059238;28;20003;-82
2022/10/28 01:30:13;;;;;;;;;;;14.60;94.00;;;;;;5056757;28;19958;-82
2022/10/28 01:32:39;;;;;;;;;;;14.60;93.90;;;;;;5071081;28;19920;-82
2022/10/28 01:35:10;;;;;;;;;;;14.60;93.90;;;;;;5054993;28;19919;-82
2022/10/28 01:37:47;;;;;;;;;;;14.70;94.00;;;;;;5074737;28;19905;-82
2022/10/28 01:40:19;;;;;;;;;;;14.80;93.60;;;;;;5066434;28;19904;-83
2022/10/28 01:42:57;;;;;;;;;;;14.90;93.30;;;;;;5071309;28;19904;-82
2022/10/28 01:45:28;;;;;;;;;;;15.00;92.70;;;;;;5068053;28;19905;-82
2022/10/28 01:47:56;;;;;;;;;;;14.80;92.80;;;;;;5053430;28;20482;-82
2022/10/28 01:50:31;;;;;;;;;;;15.00;92.60;;;;;;5057213;28;19908;-82
2022/10/28 01:52:59;;;;;;;;;;;14.90;92.50;;;;;;5062284;28;20441;-82
2022/10/28 01:55:25;;;;;;;;;;;14.80;92.70;;;;;;5055521;28;20349;-82
2022/10/28 01:57:52;;;;;;;;;;;14.70;92.90;;;;;;5058508;28;19988;-82
2022/10/28 02:00:17;;;;;;;;;;;14.70;93.20;;;;;;5061412;28;19912;-82
2022/10/28 02:02:43;;;;;;;;;;;14.60;93.40;;;;;;5072607;28;20378;-82
2022/10/28 02:05:28;;;;;;;;;;;14.60;93.60;;;;;;5067919;28;19905;-82
2022/10/28 02:07:56;;;;;;;;;;;14.50;93.70;;;;;;5066944;28;19904;-82
2022/10/28 02:10:26;;;;;;;;;;;14.50;94.00;;;;;;5062380;28;20004;-82
2022/10/28 02:12:53;;;;;;;;;;;14.50;94.00;;;;;;5065118;28;19986;-82
2022/10/28 02:15:26;;;;;;;;;;;14.40;93.90;;;;;;5063900;28;19991;-82
2022/10/28 02:17:54;;;;;;;;;;;14.30;94.30;;;;;;5055022;28;19911;-82
2022/10/28 02:20:38;;;;;;;;;;;14.30;94.40;;;;;;5055641;28;20261;-82
2022/10/28 02:23:03;;;;;;;;;;;14.20;94.50;;;;;;5072945;28;19908;-82
2022/10/28 02:25:47;;;;;;;;;;;14.30;94.50;;;;;;5061041;28;19915;-82
2022/10/28 02:28:16;;;;;;;;;;;14.20;94.20;;;;;;5066334;28;19904;-82
2022/10/28 02:30:45;;;;;;;;;;;14.10;94.50;;;;;;5058689;28;19999;-82
2022/10/28 02:33:15;;;;;;;;;;;14.00;94.70;;;;;;5051900;28;19920;-82
2022/10/28 02:35:40;;;;;;;;;;;14.00;95.00;;;;;;5071272;28;19908;-82
2022/10/28 02:38:08;;;;;;;;;;;14.00;95.30;;;;;;5063421;28;19912;-82
2022/10/28 02:40:35;;;;;;;;;;;13.90;95.60;;;;;;5071336;28;19911;-82
2022/10/28 02:43:02;;;;;;;;;;;13.80;95.30;;;;;;5060069;28;19930;-82
2022/10/28 02:45:30;;;;;;;;;;;13.70;95.50;;;;;;5058552;28;20356;-82
2022/10/28 02:47:57;;;;;;;;;;;13.70;95.70;;;;;;5071558;28;19911;-82
2022/10/28 02:50:29;;;;;;;;;;;13.70;95.90;;;;;;5053364;28;20271;-82
2022/10/28 02:52:57;;;;;;;;;;;13.70;96.00;;;;;;5055652;28;19913;-82
2022/10/28 02:55:25;;;;;;;;;;;13.80;96.00;;;;;;5068732;28;19908;-82
2022/10/28 02:57:51;;;;;;;;;;;13.90;96.00;;;;;;5059572;28;19909;-82
2022/10/28 03:00:18;;;;;;;;;;;14.00;95.70;;;;;;5066538;28;19966;-82
2022/10/28 03:02:44;;;;;;;;;;;13.90;95.40;;;;;;5063171;28;19916;-82
2022/10/28 03:05:09;;;;;;;;;;;14.00;95.60;;;;;;5066992;28;20011;-82
2022/10/28 03:07:35;;;;;;;;;;;14.00;95.50;;;;;;5053527;28;20280;-82
2022/10/28 03:10:00;;;;;;;;;;;14.10;95.50;;;;;;5057734;28;20007;-82
2022/10/28 03:12:26;;;;;;;;;;;14.10;95.40;;;;;;5053189;28;19912;-82
2022/10/28 03:14:51;;;;;;;;;;;14.00;95.20;;;;;;5059314;28;19913;-82
2022/10/28 03:17:17;;;;;;;;;;;14.00;95.40;;;;;;5054837;28;19979;-82
2022/10/28 03:19:42;;;;;;;;;;;13.90;95.30;;;;;;5050879;28;19912;-82
2022/10/28 03:22:07;;;;;;;;;;;13.80;95.40;;;;;;5053049;28;20270;-82
2022/10/28 03:24:33;;;;;;;;;;;13.70;95.60;;;;;;5061913;28;19909;-82
2022/10/28 03:26:58;;;;;;;;;;;13.60;95.90;;;;;;5056024;28;19904;-82
2022/10/28 03:29:24;;;;;;;;;;;13.70;96.20;;;;;;5058019;28;19906;-82
2022/10/28 03:31:49;;;;;;;;;;;13.70;96.20;;;;;;5055220;28;19928;-82
2022/10/28 03:34:14;;;;;;;;;;;13.80;96.10;;;;;;5057974;28;20345;-82
2022/10/28 03:36:40;;;;;;;;;;;13.80;96.20;;;;;;5062705;28;19995;-82
2022/10/28 03:39:05;;;;;;;;;;;13.80;96.20;;;;;;5062716;28;19905;-82
2022/10/28 03:41:30;;;;;;;;;;;14.00;96.10;;;;;;5059859;28;19920;-82
2022/10/28 03:43:56;;;;;;;;;;;14.00;95.80;;;;;;5065291;28;19983;-82
2022/10/28 03:46:21;;;;;;;;;;;14.00;95.80;;;;;;5051394;28;20352;-82
2022/10/28 03:48:47;;;;;;;;;;;14.00;95.80;;;;;;5063764;28;19923;-82
2022/10/28 03:51:12;;;;;;;;;;;14.00;95.50;;;;;;5054666;28;19912;-82
2022/10/28 03:53:37;;;;;;;;;;;14.00;95.60;;;;;;5054911;28;19936;-82
2022/10/28 03:56:03;;;;;;;;;;;14.00;95.70;;;;;;5056551;28;19912;-82
2022/10/28 03:58:28;;;;;;;;;;;14.00;95.60;;;;;;5051949;28;19909;-82
2022/10/28 04:00:54;;;;;;;;;;;14.00;95.70;;;;;;5055174;28;19913;-83
2022/10/28 04:03:20;;;;;;;;;;;14.00;95.60;;;;;;5053123;28;19904;-83
2022/10/28 04:05:49;;;;;;;;;;;14.00;95.80;;;;;;5062657;28;19909;-82
2022/10/28 04:08:15;;;;;;;;;;;14.10;95.40;;;;;;5057304;28;19974;-82
2022/10/28 04:10:42;;;;;;;;;;;14.10;95.10;;;;;;5052095;28;19960;-82
2022/10/28 04:13:07;;;;;;;;;;;14.10;95.30;;;;;;5053526;28;19916;-82
2022/10/28 04:15:33;;;;;;;;;;;14.10;95.30;;;;;;5062535;28;19913;-82
2022/10/28 04:17:58;;;;;;;;;;;14.10;95.10;;;;;;5052474;28;20319;-82
2022/10/28 04:20:24;;;;;;;;;;;14.20;95.20;;;;;;5050786;28;19905;-83
2022/10/28 04:22:49;;;;;;;;;;;14.10;95.10;;;;;;5056430;28;19905;-82
2022/10/28 04:25:15;;;;;;;;;;;14.00;95.10;;;;;;5057514;28;19912;-82
2022/10/28 04:27:42;;;;;;;;;;;14.00;95.30;;;;;;5062439;28;19904;-82
2022/10/28 04:30:07;;;;;;;;;;;14.00;95.30;;;;;;5059576;28;19909;-76
2022/10/28 04:32:33;;;;;;;;;;;13.90;95.50;;;;;;5057260;28;19917;-74
2022/10/28 04:34:58;;;;;;;;;;;13.90;95.60;;;;;;5051647;28;19911;-74
2022/10/28 04:37:24;;;;;;;;;;;13.80;95.50;;;;;;5059425;28;19905;-74
2022/10/28 04:39:49;;;;;;;;;;;13.80;95.70;;;;;;5056746;28;19954;-74
2022/10/28 04:42:15;;;;;;;;;;;13.70;95.80;;;;;;5060600;28;19905;-74
2022/10/28 04:44:40;;;;;;;;;;;13.60;96.00;;;;;;5058874;28;20381;-75
2022/10/28 04:47:05;;;;;;;;;;;13.60;96.00;;;;;;5055965;28;19909;-76
2022/10/28 04:49:31;;;;;;;;;;;13.50;96.20;;;;;;5052457;28;19948;-74
2022/10/28 04:51:56;;;;;;;;;;;13.50;96.40;;;;;;5064103;28;20014;-75
2022/10/28 04:54:22;;;;;;;;;;;13.50;96.40;;;;;;5069706;28;19947;-74
2022/10/28 04:56:47;;;;;;;;;;;13.50;96.50;;;;;;5053437;28;19916;-75
2022/10/28 04:59:13;;;;;;;;;;;13.40;96.60;;;;;;5064023;28;19905;-75
2022/10/28 05:01:38;;;;;;;;;;;13.30;96.70;;;;;;5051072;28;19916;-75
2022/10/28 05:04:03;;;;;;;;;;;13.30;96.80;;;;;;5051592;28;19909;-74
2022/10/28 05:06:29;;;;;;;;;;;13.40;97.10;;;;;;5051991;28;20587;-75
2022/10/28 05:08:54;;;;;;;;;;;13.50;97.00;;;;;;5051847;28;19912;-75
2022/10/28 05:11:20;;;;;;;;;;;13.50;97.00;;;;;;5059655;28;19911;-74
2022/10/28 05:13:45;;;;;;;;;;;13.50;97.00;;;;;;5064856;28;19967;-75
2022/10/28 05:16:11;;;;;;;;;;;13.40;96.90;;;;;;5053515;28;19909;-74
2022/10/28 05:18:36;;;;;;;;;;;13.50;97.10;;;;;;5052799;28;20276;-75
2022/10/28 05:21:01;;;;;;;;;;;13.50;97.20;;;;;;5070079;28;19908;-75
2022/10/28 05:23:27;;;;;;;;;;;13.40;97.00;;;;;;5066995;28;20003;-74
2022/10/28 05:25:52;;;;;;;;;;;13.40;97.10;;;;;;5062155;28;19911;-75
2022/10/28 05:28:18;;;;;;;;;;;13.50;97.30;;;;;;5068165;28;19905;-74
2022/10/28 05:30:43;;;;;;;;;;;13.50;97.10;;;;;;5055744;28;19909;-74
2022/10/28 05:33:09;;;;;;;;;;;13.50;97.00;;;;;;5065376;28;19966;-78
2022/10/28 05:35:36;;;;;;;;;;;13.50;97.10;;;;;;5065235;28;20348;-75
2022/10/28 05:38:01;;;;;;;;;;;13.50;96.80;;;;;;5056952;28;19904;-76
2022/10/28 05:40:26;;;;;;;;;;;13.50;97.20;;;;;;5074407;28;20006;-74
2022/10/28 05:42:52;;;;;;;;;;;13.40;97.00;;;;;;5069505;28;19987;-74
2022/10/28 05:45:17;;;;;;;;;;;13.30;97.10;;;;;;5058768;28;19913;-75
2022/10/28 05:47:47;;;;;;;;;;;13.30;97.20;;;;;;5066128;28;19944;-74
2022/10/28 05:50:13;;;;;;;;;;;13.30;97.20;;;;;;5071496;28;19955;-74
2022/10/28 05:52:38;;;;;;;;;;;13.30;97.30;;;;;;5067721;28;19916;-75
2022/10/28 05:55:04;;;;;;;;;;;13.20;97.50;;;;;;5062782;28;19912;-74
2022/10/28 05:57:32;;;;;;;;;;;13.20;97.40;;;;;;5064921;28;19916;-76
2022/10/28 05:59:57;;;;;;;;;;;13.10;97.50;;;;;;5068311;28;20284;-74
2022/10/28 06:02:23;;;;;;;;;;;13.10;97.50;;;;;;5063781;28;19905;-76
2022/10/28 06:04:48;;;;;;;;;;;13.10;97.80;;;;;;5060258;28;19905;-76
2022/10/28 06:07:13;;;;;;;;;;;13.10;97.80;;;;;;5059711;28;19908;-75
2022/10/28 06:09:39;;;;;;;;;;;13.10;97.90;;;;;;5072288;28;19911;-75
2022/10/28 06:12:05;;;;;;;;;;;13.10;97.80;;;;;;5058833;28;19913;-74
2022/10/28 06:14:31;;;;;;;;;;;13.10;97.70;;;;;;5061843;28;19909;-75
2022/10/28 06:16:56;;;;;;;;;;;13.00;97.90;;;;;;5064437;28;20367;-75
2022/10/28 06:19:21;;;;;;;;;;;13.00;97.80;;;;;;5055424;28;19939;-76
2022/10/28 06:21:47;;;;;;;;;;;13.00;97.90;;;;;;5066138;28;19916;-75
2022/10/28 06:24:12;;;;;;;;;;;13.00;98.10;;;;;;5059046;28;19911;-75
2022/10/28 06:26:38;;;;;;;;;;;13.00;98.00;;;;;;5061214;28;19904;-74
2022/10/28 06:29:03;;;;;;;;;;;13.00;98.20;;;;;;5074166;28;19905;-75
2022/10/28 06:31:29;;;;;;;;;;;13.10;98.20;;;;;;5049386;28;19905;-74
2022/10/28 06:33:56;;;;;;;;;;;13.10;98.10;;;;;;5060035;28;20391;-74
2022/10/28 06:36:21;;;;;;;;;;;13.20;98.20;;;;;;5056529;28;19919;-75
2022/10/28 06:38:47;;;;;;;;;;;13.30;98.10;;;;;;5047489;28;20362;-75
2022/10/28 06:41:12;;;;;;;;;;;13.30;98.10;;;;;;5063075;28;20444;-75
2022/10/28 06:43:38;;;;;;;;;;;13.40;97.90;;;;;;5064515;28;19908;-75
2022/10/28 06:46:04;;;;;;;;;;;13.50;97.50;;;;;;5054935;28;20007;-74
2022/10/28 06:48:30;;;;;;;;;;;13.60;97.40;;;;;;5060694;28;19915;-74
2022/10/28 06:50:56;;;;;;;;;;;13.60;97.20;;;;;;5060625;28;19905;-75
2022/10/28 06:53:22;;;;;;;;;;;13.60;97.10;;;;;;5067379;28;20015;-74
2022/10/28 06:55:54;;;;;;;;;;;13.70;97.10;;;;;;5055861;28;19991;-74
2022/10/28 06:58:20;;;;;;;;;;;13.70;96.80;;;;;;5065834;28;19908;-74
2022/10/28 07:00:46;;;;;;;;;;;13.70;96.70;;;;;;5051588;28;20272;-76
2022/10/28 07:03:11;;;;;;;;;;;13.80;96.50;;;;;;5065035;28;19924;-77
2022/10/28 07:05:37;;;;;;;;;;;13.90;96.30;;;;;;5067157;28;19915;-74
2022/10/28 07:08:03;;;;;;;;;;;14.00;96.20;;;;;;5044404;28;19991;-76
2022/10/28 07:10:28;;;;;;;;;;;14.00;95.90;;;;;;5060577;28;20404;-75
2022/10/28 07:12:54;;;;;;;;;;;14.10;95.80;;;;;;5067782;28;19935;-75
2022/10/28 07:15:19;;;;;;;;;;;14.10;95.60;;;;;;5054830;28;20276;-77
2022/10/28 07:17:50;;;;;;;;;;;14.20;95.40;;;;;;5052743;28;19908;-75
2022/10/28 07:20:16;;;;;;;;;;;14.20;95.20;;;;;;5052840;28;19912;-76
2022/10/28 07:22:41;;;;;;;;;;;14.20;95.40;;;;;;5036460;28;19904;-75
2022/10/28 07:25:07;;;;;;;;;;;14.30;95.10;;;;;;5053770;28;19909;-75
2022/10/28 07:27:32;;;;;;;;;;;14.40;94.90;;;;;;5053621;28;19905;-75
2022/10/28 07:29:57;;;;;;;;;;;14.50;94.60;;;;;;5059766;28;19918;-74
2022/10/28 07:32:23;;;;;;;;;;;14.50;94.70;;;;;;5062420;28;19923;-76
2022/10/28 07:34:48;;;;;;;;;;;14.50;94.60;;;;;;5066027;28;19905;-74
2022/10/28 07:37:14;;;;;;;;;;;14.50;94.70;;;;;;5063754;28;19909;-74
2022/10/28 07:39:39;;;;;;;;;;;14.50;94.40;;;;;;5056490;28;19987;-75
2022/10/28 07:42:05;;;;;;;;;;;14.60;94.40;;;;;;5053250;28;20284;-74
2022/10/28 07:44:30;;;;;;;;;;;14.70;94.20;;;;;;5052618;28;19951;-73
2022/10/28 07:46:55;;;;;;;;;;;14.80;94.00;;;;;;5055547;28;19950;-74
2022/10/28 07:49:21;;;;;;;;;;;14.80;93.50;;;;;;5059064;28;19944;-75
2022/10/28 07:51:48;;;;;;;;;;;14.90;93.50;;;;;;5041950;28;20360;-74
2022/10/28 07:54:14;;;;;;;;;;;15.00;93.30;;;;;;5041915;28;19905;-74
2022/10/28 07:56:39;;;;;;;;;;;15.00;93.10;;;;;;5070638;28;19949;-74
2022/10/28 07:59:04;;;;;;;;;;;15.10;93.20;;;;;;5057739;28;19912;-75
2022/10/28 08:01:30;;;;;;;;;;;15.20;92.70;;;;;;5052531;28;20280;-74
2022/10/28 08:03:55;;;;;;;;;;;15.30;92.50;;;;;;5065056;28;19966;-74
2022/10/28 08:06:21;;;;;;;;;;;15.40;92.20;;;;;;5052807;28;20073;-74
2022/10/28 08:08:47;;;;;;;;;;;15.50;92.20;;;;;;5057061;28;19909;-75
2022/10/28 08:11:21;;;;;;;;;;;15.60;92.10;;;;;;5061018;28;19991;-75
2022/10/28 08:13:46;;;;;;;;;;;15.60;91.80;;;;;;5056949;28;19913;-75
2022/10/28 08:16:12;;;;;;;;;;;15.80;92.30;;;;;;5052191;28;20375;-74
2022/10/28 08:18:38;;;;;;;;;;;15.90;91.60;;;;;;5056755;28;19916;-75
2022/10/28 08:21:04;;;;;;;;;;;16.10;91.30;;;;;;5062376;28;20340;-74
2022/10/28 08:23:30;;;;;;;;;;;16.30;91.20;;;;;;5043002;28;20031;-74
2022/10/28 08:25:55;;;;;;;;;;;16.40;90.20;;;;;;5063498;28;19932;-76
2022/10/28 08:28:21;;;;;;;;;;;16.60;89.30;;;;;;5068582;28;20864;-75
2022/10/28 08:30:46;;;;;;;;;;;16.70;89.00;;;;;;5061479;28;19912;-74
2022/10/28 08:33:12;;;;;;;;;;;16.80;88.70;;;;;;5058467;28;19916;-76
2022/10/28 08:35:38;;;;;;;;;;;17.00;88.70;;;;;;5054253;28;19908;-74
2022/10/28 08:38:03;;;;;;;;;;;17.00;87.70;;;;;;5063574;28;19916;-75
2022/10/28 08:40:38;;;;;;;;;;;17.00;87.20;;;;;;5053000;28;20343;-74
2022/10/28 08:43:39;;;;;;;;;;;17.10;87.40;;;;;;5062861;28;19959;-74
2022/10/28 08:46:15;;;;;;;;;;;17.20;87.50;;;;;;4951281;29;19936;-73
2022/10/28 08:48:41;;;;;;;;;;;17.40;87.10;;;;;;5050577;28;19909;-74
2022/10/28 08:51:36;;;;;;;;;;;17.50;86.50;;;;;;5053627;28;20488;-75
2022/10/28 08:54:04;;;;;;;;;;;17.60;85.90;;;;;;4974030;28;19922;-76
2022/10/28 08:56:39;;;;;;;;;;;17.70;85.30;;;;;;5058138;28;19904;-75
2022/10/28 08:59:05;;;;;;;;;;;17.80;84.50;;;;;;5057705;28;19911;-74
2022/10/28 09:01:37;;;;;;;;;;;17.90;85.10;;;;;;5070502;28;19905;-74
2022/10/28 09:04:07;;;;;;;;;;;18.00;84.40;;;;;;5043561;28;20320;-75
2022/10/28 09:06:32;;;;;;;;;;;18.10;84.10;;;;;;5057260;28;20257;-75
2022/10/28 09:08:58;;;;;;;;;;;18.20;84.00;;;;;;5056330;28;19909;-74
2022/10/28 09:11:34;;;;;;;;;;;18.30;83.70;;;;;;5059532;28;19908;-74
2022/10/28 09:14:02;;;;;;;;;;;18.50;82.80;;;;;;5046988;28;19956;-74
2022/10/28 09:16:47;;;;;;;;;;;18.50;82.50;;;;;;5061016;28;19904;-76
2022/10/28 09:19:15;;;;;;;;;;;18.60;83.30;;;;;;5056827;28;20287;-74
2022/10/28 09:21:46;;;;;;;;;;;18.70;83.40;;;;;;5057185;28;20383;-74
2022/10/28 09:24:16;;;;;;;;;;;18.80;81.30;;;;;;5068751;28;20254;-74
2022/10/28 09:26:48;;;;;;;;;;;19.00;81.80;;;;;;5058483;28;19912;-76
2022/10/28 09:29:39;;;;;;;;;;;19.00;80.70;;;;;;5059471;28;19995;-75
2022/10/28 09:32:16;;;;;;;;;;;19.10;81.60;;;;;;5050839;28;19938;-75
2022/10/28 09:34:51;;;;;;;;;;;19.20;81.00;;;;;;5059453;28;19913;-74
2022/10/28 09:37:18;;;;;;;;;;;19.20;80.20;;;;;;5058441;28;19909;-74
2022/10/28 09:39:46;;;;;;;;;;;19.30;79.30;;;;;;5056900;28;19904;-75
2022/10/28 09:42:18;;;;;;;;;;;19.40;79.80;;;;;;5075588;28;20399;-75
2022/10/28 09:45:01;;;;;;;;;;;19.50;79.80;;;;;;5058525;28;19932;-74
2022/10/28 09:47:33;;;;;;;;;;;19.60;78.50;;;;;;5065255;28;19908;-75
2022/10/28 09:50:00;;;;;;;;;;;19.70;78.30;;;;;;5069466;28;19933;-74
2022/10/28 09:52:27;;;;;;;;;;;19.80;78.80;;;;;;5069379;28;20256;-74
2022/10/28 09:54:54;;;;;;;;;;;20.00;78.20;;;;;;5062036;28;19916;-75
2022/10/28 09:57:21;;;;;;;;;;;20.00;76.70;;;;;;5056539;28;20930;-76
2022/10/28 09:59:46;;;;;;;;;;;20.00;76.70;;;;;;5060788;28;19904;-74
2022/10/28 10:02:23;;;;;;;;;;;20.10;76.70;;;;;;5061388;28;19909;-75
2022/10/28 10:04:49;;;;;;;;;;;20.20;76.90;;;;;;5058054;28;20325;-74
2022/10/28 10:07:17;;;;;;;;;;;20.40;76.40;;;;;;5057421;28;19912;-74
2022/10/28 10:09:43;;;;;;;;;;;20.40;75.30;;;;;;5057257;28;20268;-75
2022/10/28 10:12:09;;;;;;;;;;;20.40;75.20;;;;;;5059869;28;19909;-74
2022/10/28 10:14:41;;;;;;;;;;;20.40;75.70;;;;;;5060136;28;20349;-74
2022/10/28 10:17:15;;;;;;;;;;;20.40;74.70;;;;;;5058376;28;19909;-75
2022/10/28 10:20:00;;;;;;;;;;;20.50;74.80;;;;;;5063507;28;19940;-74
2022/10/28 10:22:33;;;;;;;;;;;20.50;75.60;;;;;;5064776;28;19909;-74
2022/10/28 10:24:58;;;;;;;;;;;20.50;76.10;;;;;;5069475;28;19904;-74
2022/10/28 10:27:25;;;;;;;;;;;20.60;75.50;;;;;;5062150;28;19928;-74
2022/10/28 10:29:51;;;;;;;;;;;20.70;75.10;;;;;;5052533;28;20407;-74
2022/10/28 10:32:18;;;;;;;;;;;20.80;75.30;;;;;;5056400;28;19956;-76
2022/10/28 10:34:58;;;;;;;;;;;20.80;75.00;;;;;;5064196;28;20673;-74
2022/10/28 10:37:24;;;;;;;;;;;21.00;75.40;;;;;;5065657;28;20321;-74
2022/10/28 10:40:05;;;;;;;;;;;21.00;74.10;;;;;;5070916;28;19908;-73
2022/10/28 10:42:32;;;;;;;;;;;21.20;74.20;;;;;;5057340;28;20337;-75
2022/10/28 10:45:00;;;;;;;;;;;21.20;73.30;;;;;;5063012;28;20000;-74
2022/10/28 10:47:25;;;;;;;;;;;21.30;73.60;;;;;;5052624;28;20375;-75
2022/10/28 10:49:51;;;;;;;;;;;21.40;73.40;;;;;;5062877;28;19952;-75
2022/10/28 10:52:22;;;;;;;;;;;21.50;72.00;;;;;;5065429;28;19916;-74
2022/10/28 10:55:17;;;;;;;;;;;21.60;71.70;;;;;;5065203;28;20414;-75
2022/10/28 10:57:44;;;;;;;;;;;21.60;72.80;;;;;;5022640;28;20318;-75
2022/10/28 11:00:14;;;;;;;;;;;21.70;72.20;;;;;;5063130;28;20261;-74
2022/10/28 11:02:43;;;;;;;;;;;21.80;72.30;;;;;;5068750;28;19969;-76
2022/10/28 11:05:09;;;;;;;;;;;22.00;71.70;;;;;;5073368;28;19908;-75
2022/10/28 11:07:36;;;;;;;;;;;21.90;71.00;;;;;;5060757;28;20471;-75
2022/10/28 11:10:02;;;;;;;;;;;22.20;71.40;;;;;;5051794;28;19926;-75
2022/10/28 11:12:30;;;;;;;;;;;22.20;70.70;;;;;;5068183;28;20379;-76
2022/10/28 11:15:00;;;;;;;;;;;22.40;71.70;;;;;;5053312;28;19949;-75
2022/10/28 11:17:29;;;;;;;;;;;22.30;71.10;;;;;;5071441;28;19905;-74
2022/10/28 11:19:56;;;;;;;;;;;22.30;71.40;;;;;;5065007;28;19908;-74
2022/10/28 11:22:28;;;;;;;;;;;22.00;70.10;;;;;;5059509;28;20425;-75
2022/10/28 11:25:17;;;;;;;;;;;21.90;70.60;;;;;;5072414;28;19923;-75
2022/10/28 11:28:09;;;;;;;;;;;22.00;70.10;;;;;;5058643;28;19909;-75
2022/10/28 11:30:44;;;;;;;;;;;22.00;71.50;;;;;;5029264;28;19935;-74
2022/10/28 11:33:29;;;;;;;;;;;21.80;72.00;;;;;;5051726;28;19917;-76
2022/10/28 11:36:05;;;;;;;;;;;21.80;72.40;;;;;;5052860;28;19904;-74
2022/10/28 11:38:50;;;;;;;;;;;21.80;72.20;;;;;;5068654;28;19904;-75
2022/10/28 11:41:20;;;;;;;;;;;21.90;72.00;;;;;;5057345;28;19909;-76
2022/10/28 11:44:08;;;;;;;;;;;22.00;71.20;;;;;;5062000;28;19904;-74
2022/10/28 11:46:37;;;;;;;;;;;22.20;71.60;;;;;;5046179;28;20423;-74
2022/10/28 11:49:24;;;;;;;;;;;22.30;70.60;;;;;;5059843;28;19908;-75
2022/10/28 11:51:55;;;;;;;;;;;22.60;70.40;;;;;;5043506;28;20332;-75
2022/10/28 11:54:21;;;;;;;;;;;22.90;69.60;;;;;;5072760;28;19919;-76
2022/10/28 11:56:49;;;;;;;;;;;23.50;69.30;;;;;;5063834;28;19908;-75
2022/10/28 11:59:26;;;;;;;;;;;23.70;68.10;;;;;;5040738;28;19908;-74
2022/10/28 12:01:58;;;;;;;;;;;23.90;65.30;;;;;;5064402;28;19908;-77
2022/10/28 12:04:28;;;;;;;;;;;23.80;65.90;;;;;;5040710;28;20315;-76
2022/10/28 12:06:59;;;;;;;;;;;23.70;64.70;;;;;;5065532;28;19952;-74
2022/10/28 12:09:38;;;;;;;;;;;23.70;65.70;;;;;;5065704;28;19998;-74
2022/10/28 12:12:12;;;;;;;;;;;23.50;65.10;;;;;;5049620;28;19916;-75
2022/10/28 12:14:37;;;;;;;;;;;23.50;66.30;;;;;;5035651;28;19972;-75
2022/10/28 12:17:13;;;;;;;;;;;23.50;65.60;;;;;;5056508;28;19916;-77
2022/10/28 12:19:45;;;;;;;;;;;23.40;66.40;;;;;;5039645;28;19904;-76
2022/10/28 12:22:20;;;;;;;;;;;23.70;65.60;;;;;;5053487;28;19995;-75
2022/10/28 12:24:46;;;;;;;;;;;23.60;66.30;;;;;;5060873;28;20296;-74
2022/10/28 12:27:15;;;;;;;;;;;23.50;67.00;;;;;;5053089;28;19905;-77
2022/10/28 12:29:43;;;;;;;;;;;23.40;67.40;;;;;;5059302;28;19904;-75
2022/10/28 12:32:13;;;;;;;;;;;23.50;66.10;;;;;;5058825;28;19924;-74
2022/10/28 12:34:47;;;;;;;;;;;23.80;67.30;;;;;;5054849;28;19956;-75
2022/10/28 12:37:16;;;;;;;;;;;24.30;65.80;;;;;;5067522;28;19958;-76
2022/10/28 12:39:49;;;;;;;;;;;24.60;62.50;;;;;;5060372;28;19916;-76
2022/10/28 12:42:27;;;;;;;;;;;25.10;64.10;;;;;;5068715;28;19958;-75
2022/10/28 12:44:54;;;;;;;;;;;25.20;61.90;;;;;;5073149;28;19904;-76
2022/10/28 12:47:32;;;;;;;;;;;25.00;60.80;;;;;;5060852;28;20331;-77
2022/10/28 12:50:10;;;;;;;;;;;24.60;62.80;;;;;;5057541;28;20321;-75
2022/10/28 12:52:49;;;;;;;;;;;24.30;62.70;;;;;;5052328;28;19922;-75
2022/10/28 12:55:22;;;;;;;;;;;24.50;62.80;;;;;;5062377;28;19954;-75
2022/10/28 12:57:53;;;;;;;;;;;23.70;64.20;;;;;;5060172;28;20007;-74
2022/10/28 13:00:21;;;;;;;;;;;23.30;66.00;;;;;;5067668;28;19991;-75
2022/10/28 13:02:52;;;;;;;;;;;23.20;67.70;;;;;;5069372;28;19999;-74
2022/10/28 13:05:20;;;;;;;;;;;23.00;67.80;;;;;;5037642;28;19967;-74
2022/10/28 13:08:12;;;;;;;;;;;22.70;68.90;;;;;;5060875;28;19905;-74
2022/10/28 13:10:41;;;;;;;;;;;22.80;70.30;;;;;;5070280;28;19912;-75
2022/10/28 13:13:17;;;;;;;;;;;22.70;69.80;;;;;;5047308;28;19908;-74
2022/10/28 13:15:54;;;;;;;;;;;22.80;70.40;;;;;;5055390;28;20242;-74
2022/10/28 13:18:27;;;;;;;;;;;22.70;70.40;;;;;;5054336;28;20007;-74
2022/10/28 13:20:58;;;;;;;;;;;22.50;70.70;;;;;;5042910;28;19908;-74
2022/10/28 13:23:42;;;;;;;;;;;22.50;71.10;;;;;;5057621;28;19905;-74
2022/10/28 13:26:37;;;;;;;;;;;22.50;71.80;;;;;;5075673;28;20366;-74
2022/10/28 13:29:15;;;;;;;;;;;22.30;71.90;;;;;;5047042;28;19904;-76
2022/10/28 13:31:44;;;;;;;;;;;22.10;71.80;;;;;;5034958;28;19974;-74
2022/10/28 13:34:13;;;;;;;;;;;22.10;72.40;;;;;;5064733;28;19952;-74
2022/10/28 13:36:41;;;;;;;;;;;22.00;73.20;;;;;;5054722;28;19909;-76
2022/10/28 13:39:23;;;;;;;;;;;21.90;72.70;;;;;;5073941;28;20007;-74
2022/10/28 13:42:09;;;;;;;;;;;21.80;72.20;;;;;;5061348;28;19904;-74
2022/10/28 13:44:45;;;;;;;;;;;21.70;73.40;;;;;;5067353;28;20337;-74
2022/10/28 13:47:14;;;;;;;;;;;21.60;74.40;;;;;;5058568;28;20363;-75
2022/10/28 13:49:58;;;;;;;;;;;21.50;74.90;;;;;;5057273;28;19947;-75
2022/10/28 13:52:23;;;;;;;;;;;21.50;74.10;;;;;;5056637;28;19920;-74
2022/10/28 13:54:49;;;;;;;;;;;21.40;75.00;;;;;;5056713;28;19912;-74
2022/10/28 13:57:18;;;;;;;;;;;21.30;75.30;;;;;;5041807;28;19948;-74
2022/10/28 13:59:52;;;;;;;;;;;21.20;75.10;;;;;;5040206;28;19904;-74
2022/10/28 14:02:21;;;;;;;;;;;21.10;75.20;;;;;;5039519;28;19912;-75
2022/10/28 14:04:57;;;;;;;;;;;21.10;76.00;;;;;;5053653;28;19991;-74
2022/10/28 14:07:26;;;;;;;;;;;21.00;76.30;;;;;;5060549;28;19913;-74
2022/10/28 14:09:54;;;;;;;;;;;20.90;76.70;;;;;;5064951;28;19908;-75
2022/10/28 14:12:22;;;;;;;;;;;20.90;76.90;;;;;;5062820;28;19908;-74
2022/10/28 14:14:59;;;;;;;;;;;20.80;77.10;;;;;;5044021;28;19966;-74
2022/10/28 14:17:33;;;;;;;;;;;20.80;76.30;;;;;;5056114;28;19904;-74
2022/10/28 14:19:58;;;;;;;;;;;20.70;77.20;;;;;;5044425;28;19905;-74
2022/10/28 14:22:32;;;;;;;;;;;20.70;76.80;;;;;;5056036;28;19972;-74
2022/10/28 14:24:58;;;;;;;;;;;20.70;77.20;;;;;;5054196;28;19982;-74
2022/10/28 14:27:38;;;;;;;;;;;20.70;77.20;;;;;;5053956;28;19905;-74